createdAt,value
2023-05-16T00:00:48.950Z,1006.53
2023-05-16T00:01:48.937Z,1006.52
2023-05-16T00:02:49.057Z,1006.58
2023-05-16T00:03:48.993Z,1006.61
2023-05-16T00:04:48.835Z,1006.62
2023-05-16T00:05:48.778Z,1006.66
2023-05-16T00:06:48.740Z,1006.67
2023-05-16T00:07:48.701Z,1006.67
2023-05-16T00:08:48.669Z,1006.67
2023-05-16T00:09:48.706Z,1006.64
2023-05-16T00:10:48.635Z,1006.65
2023-05-16T00:11:48.593Z,1006.67
2023-05-16T00:12:48.546Z,1006.66
2023-05-16T00:13:48.526Z,1006.65
2023-05-16T00:14:48.545Z,1006.73
2023-05-16T00:15:48.441Z,1006.73
2023-05-16T00:16:48.461Z,1006.71
2023-05-16T00:17:48.413Z,1006.72
2023-05-16T00:18:48.381Z,1006.68
2023-05-16T00:19:48.390Z,1006.69
2023-05-16T00:20:48.289Z,1006.73
2023-05-16T00:21:48.258Z,1006.73
2023-05-16T00:22:48.220Z,1006.70
2023-05-16T00:23:48.214Z,1006.72
2023-05-16T00:24:48.180Z,1006.74
2023-05-16T00:25:48.213Z,1006.74
2023-05-16T00:26:48.102Z,1006.79
2023-05-16T00:27:48.118Z,1006.77
2023-05-16T00:28:48.049Z,1006.78
2023-05-16T00:29:48.022Z,1006.78
2023-05-16T00:30:47.963Z,1006.76
2023-05-16T00:31:48.493Z,1006.79
2023-05-16T00:32:47.969Z,1006.78
2023-05-16T00:33:47.865Z,1006.75
2023-05-16T00:34:47.871Z,1006.75
2023-05-16T00:35:47.821Z,1006.74
2023-05-16T00:36:47.780Z,1006.73
2023-05-16T00:37:47.813Z,1006.75
2023-05-16T00:38:47.725Z,1006.76
2023-05-16T00:39:47.694Z,1006.77
2023-05-16T00:40:47.659Z,1006.77
2023-05-16T00:41:47.717Z,1006.76
2023-05-16T00:42:47.595Z,1006.79
2023-05-16T00:43:47.615Z,1006.81
2023-05-16T00:44:47.520Z,1006.83
2023-05-16T00:45:47.592Z,1006.85
2023-05-16T00:46:47.645Z,1006.88
2023-05-16T00:47:47.448Z,1006.85
2023-05-16T00:48:47.388Z,1006.86
2023-05-16T00:49:47.410Z,1006.86
2023-05-16T00:50:47.331Z,1006.90
2023-05-16T00:51:47.285Z,1006.90
2023-05-16T00:52:47.253Z,1006.89
2023-05-16T00:53:47.236Z,1006.89
2023-05-16T00:54:47.184Z,1006.90
2023-05-16T00:55:47.397Z,1006.91
2023-05-16T00:56:47.133Z,1006.89
2023-05-16T00:57:47.095Z,1006.94
2023-05-16T00:58:47.089Z,1006.93
2023-05-16T00:59:47.039Z,1006.94
2023-05-16T01:00:48.581Z,1006.96
2023-05-16T01:01:47.062Z,1006.99
2023-05-16T01:02:47.026Z,1006.98
2023-05-16T01:03:47.118Z,1007.01
2023-05-16T01:04:46.859Z,1007.02
2023-05-16T01:05:46.925Z,1007.07
2023-05-16T01:06:46.802Z,1007.08
2023-05-16T01:07:46.827Z,1007.07
2023-05-16T01:08:46.841Z,1007.09
2023-05-16T01:09:46.725Z,1007.09
2023-05-16T01:10:46.670Z,1007.12
2023-05-16T01:11:46.634Z,1007.12
2023-05-16T01:12:46.611Z,1007.14
2023-05-16T01:13:46.701Z,1007.14
2023-05-16T01:14:46.535Z,1007.15
2023-05-16T01:15:46.577Z,1007.16
2023-05-16T01:16:46.481Z,1007.15
2023-05-16T01:17:46.502Z,1007.20
2023-05-16T01:18:46.459Z,1007.22
2023-05-16T01:19:46.456Z,1007.19
2023-05-16T01:20:46.352Z,1007.20
2023-05-16T01:21:46.305Z,1007.26
2023-05-16T01:22:46.279Z,1007.30
2023-05-16T01:23:46.280Z,1007.26
2023-05-16T01:24:46.215Z,1007.33
2023-05-16T01:25:46.234Z,1007.32
2023-05-16T01:26:46.141Z,1007.32
2023-05-16T01:27:46.112Z,1007.37
2023-05-16T01:28:46.102Z,1007.34
2023-05-16T01:29:46.061Z,1007.35
2023-05-16T01:30:46.034Z,1007.33
2023-05-16T01:31:46.155Z,1007.35
2023-05-16T01:32:46.010Z,1007.36
2023-05-16T01:33:45.930Z,1007.37
2023-05-16T01:34:45.882Z,1007.36
2023-05-16T01:35:45.845Z,1007.38
2023-05-16T01:36:45.863Z,1007.39
2023-05-16T01:37:45.778Z,1007.39
2023-05-16T01:38:45.765Z,1007.41
2023-05-16T01:39:45.724Z,1007.46
2023-05-16T01:40:45.674Z,1007.51
2023-05-16T01:41:45.720Z,1007.56
2023-05-16T01:42:45.625Z,1007.53
2023-05-16T01:43:46.264Z,1007.56
2023-05-16T01:44:45.551Z,1007.52
2023-05-16T01:45:45.519Z,1007.61
2023-05-16T01:46:45.529Z,1007.59
2023-05-16T01:47:45.565Z,1007.57
2023-05-16T01:48:45.452Z,1007.61
2023-05-16T01:49:45.393Z,1007.65
2023-05-16T01:50:45.421Z,1007.72
2023-05-16T01:51:45.350Z,1007.73
2023-05-16T01:52:45.311Z,1007.71
2023-05-16T01:53:45.280Z,1007.75
2023-05-16T01:54:45.249Z,1007.78
2023-05-16T01:55:45.257Z,1007.79
2023-05-16T01:56:45.162Z,1007.80
2023-05-16T01:57:45.127Z,1007.82
2023-05-16T01:58:45.090Z,1007.86
2023-05-16T01:59:45.125Z,1007.89
2023-05-16T02:00:45.148Z,1007.93
2023-05-16T02:01:45.031Z,1007.88
2023-05-16T02:02:45.010Z,1007.94
2023-05-16T02:03:44.964Z,1007.91
2023-05-16T02:04:44.912Z,1007.94
2023-05-16T02:05:44.869Z,1007.93
2023-05-16T02:06:44.958Z,1007.95
2023-05-16T02:07:44.820Z,1007.93
2023-05-16T02:08:44.772Z,1007.97
2023-05-16T02:09:44.740Z,1007.95
2023-05-16T02:10:44.701Z,1007.94
2023-05-16T02:11:44.785Z,1007.98
2023-05-16T02:12:44.708Z,1008.00
2023-05-16T02:13:44.626Z,1008.02
2023-05-16T02:14:44.605Z,1007.99
2023-05-16T02:15:44.568Z,1007.99
2023-05-16T02:16:44.567Z,1007.99
2023-05-16T02:17:44.511Z,1008.00
2023-05-16T02:18:44.550Z,1008.11
2023-05-16T02:19:44.430Z,1008.03
2023-05-16T02:20:44.370Z,1008.08
2023-05-16T02:21:44.370Z,1008.04
2023-05-16T02:22:44.319Z,1008.10
2023-05-16T02:23:44.307Z,1008.05
2023-05-16T02:24:44.318Z,1008.06
2023-05-16T02:25:44.216Z,1008.06
2023-05-16T02:26:44.208Z,1008.07
2023-05-16T02:27:44.162Z,1008.07
2023-05-16T02:28:44.188Z,1008.07
2023-05-16T02:29:44.171Z,1008.06
2023-05-16T02:30:44.177Z,1008.12
2023-05-16T02:31:44.039Z,1008.17
2023-05-16T02:32:44.012Z,1008.17
2023-05-16T02:33:43.971Z,1008.21
2023-05-16T02:34:43.927Z,1008.24
2023-05-16T02:35:43.900Z,1008.31
2023-05-16T02:36:43.919Z,1008.31
2023-05-16T02:37:43.819Z,1008.31
2023-05-16T02:38:43.794Z,1008.35
2023-05-16T02:39:43.786Z,1008.39
2023-05-16T02:40:43.742Z,1008.37
2023-05-16T02:41:43.706Z,1008.38
2023-05-16T02:42:43.746Z,1008.39
2023-05-16T02:43:46.809Z,1008.47
2023-05-16T02:44:43.620Z,1008.44
2023-05-16T02:45:43.575Z,1008.44
2023-05-16T02:46:43.583Z,1008.44
2023-05-16T02:47:43.549Z,1008.40
2023-05-16T02:48:43.548Z,1008.44
2023-05-16T02:49:43.439Z,1008.42
2023-05-16T02:50:43.434Z,1008.43
2023-05-16T02:51:43.427Z,1008.47
2023-05-16T02:52:43.366Z,1008.45
2023-05-16T02:53:43.315Z,1008.44
2023-05-16T02:54:43.372Z,1008.42
2023-05-16T02:55:43.269Z,1008.47
2023-05-16T02:56:43.200Z,1008.45
2023-05-16T02:57:43.176Z,1008.52
2023-05-16T02:58:43.190Z,1008.54
2023-05-16T02:59:43.176Z,1008.58
2023-05-16T03:00:43.098Z,1008.61
2023-05-16T03:01:43.086Z,1008.62
2023-05-16T03:02:43.143Z,1008.69
2023-05-16T03:03:43.566Z,1008.68
2023-05-16T03:04:42.966Z,1008.73
2023-05-16T03:05:42.902Z,1008.74
2023-05-16T03:06:42.928Z,1008.75
2023-05-16T03:07:42.887Z,1008.71
2023-05-16T03:08:42.876Z,1008.73
2023-05-16T03:09:42.789Z,1008.75
2023-05-16T03:10:42.766Z,1008.79
2023-05-16T03:11:42.741Z,1008.81
2023-05-16T03:12:42.683Z,1008.82
2023-05-16T03:13:42.754Z,1008.83
2023-05-16T03:14:42.644Z,1008.86
2023-05-16T03:15:42.604Z,1008.91
2023-05-16T03:16:42.612Z,1008.88
2023-05-16T03:17:42.536Z,1008.88
2023-05-16T03:18:42.582Z,1008.92
2023-05-16T03:19:42.475Z,1008.90
2023-05-16T03:20:42.437Z,1008.87
2023-05-16T03:21:43.305Z,1008.86
2023-05-16T03:22:42.375Z,1008.86
2023-05-16T03:23:42.409Z,1008.91
2023-05-16T03:24:42.375Z,1008.86
2023-05-16T03:25:42.556Z,1008.83
2023-05-16T03:26:42.247Z,1008.85
2023-05-16T03:27:42.200Z,1008.80
2023-05-16T03:28:42.175Z,1008.77
2023-05-16T03:29:42.193Z,1008.83
2023-05-16T03:30:42.160Z,1008.76
2023-05-16T03:31:42.115Z,1008.79
2023-05-16T03:32:42.099Z,1008.82
2023-05-16T03:33:42.019Z,1008.77
2023-05-16T03:34:41.983Z,1008.76
2023-05-16T03:35:42.022Z,1008.80
2023-05-16T03:36:41.898Z,1008.80
2023-05-16T03:37:41.913Z,1008.80
2023-05-16T03:38:41.840Z,1008.75
2023-05-16T03:39:41.808Z,1008.77
2023-05-16T03:40:41.786Z,1008.82
2023-05-16T03:41:41.859Z,1008.82
2023-05-16T03:42:41.714Z,1008.84
2023-05-16T03:43:41.687Z,1008.85
2023-05-16T03:44:41.723Z,1008.83
2023-05-16T03:45:41.647Z,1008.83
2023-05-16T03:46:41.574Z,1008.87
2023-05-16T03:47:41.589Z,1008.79
2023-05-16T03:48:41.510Z,1008.80
2023-05-16T03:49:41.487Z,1008.85
2023-05-16T03:50:41.520Z,1008.84
2023-05-16T03:51:41.458Z,1008.84
2023-05-16T03:52:41.378Z,1008.87
2023-05-16T03:53:41.354Z,1008.88
2023-05-16T03:54:41.303Z,1008.92
2023-05-16T03:55:41.348Z,1008.91
2023-05-16T03:56:41.250Z,1008.89
2023-05-16T03:57:41.250Z,1008.88
2023-05-16T03:58:41.181Z,1008.85
2023-05-16T03:59:41.172Z,1008.96
2023-05-16T04:00:41.107Z,1008.93
2023-05-16T04:01:41.179Z,1008.94
2023-05-16T04:02:41.294Z,1008.97
2023-05-16T04:03:41.027Z,1009.02
2023-05-16T04:04:40.972Z,1009.04
2023-05-16T04:05:40.994Z,1009.09
2023-05-16T04:06:40.954Z,1009.10
2023-05-16T04:07:40.973Z,1009.10
2023-05-16T04:08:40.897Z,1009.17
2023-05-16T04:09:40.812Z,1009.14
2023-05-16T04:10:40.812Z,1009.16
2023-05-16T04:11:40.758Z,1009.10
2023-05-16T04:12:40.796Z,1009.21
2023-05-16T04:13:40.754Z,1009.22
2023-05-16T04:14:40.655Z,1009.22
2023-05-16T04:15:40.630Z,1009.22
2023-05-16T04:16:40.646Z,1009.27
2023-05-16T04:17:40.675Z,1009.28
2023-05-16T04:18:40.590Z,1009.35
2023-05-16T04:19:40.512Z,1009.34
2023-05-16T04:20:40.446Z,1009.28
2023-05-16T04:21:40.426Z,1009.30
2023-05-16T04:22:40.421Z,1009.28
2023-05-16T04:23:40.357Z,1009.30
2023-05-16T04:24:40.406Z,1009.32
2023-05-16T04:25:40.304Z,1009.36
2023-05-16T04:26:40.252Z,1009.32
2023-05-16T04:27:40.245Z,1009.32
2023-05-16T04:28:40.195Z,1009.34
2023-05-16T04:29:40.235Z,1009.33
2023-05-16T04:30:40.141Z,1009.32
2023-05-16T04:31:40.124Z,1009.38
2023-05-16T04:32:40.108Z,1009.39
2023-05-16T04:33:40.061Z,1009.34
2023-05-16T04:34:40.607Z,1009.36
2023-05-16T04:35:39.968Z,1009.39
2023-05-16T04:36:39.930Z,1009.40
2023-05-16T04:37:39.904Z,1009.41
2023-05-16T04:38:39.880Z,1009.46
2023-05-16T04:39:39.916Z,1009.42
2023-05-16T04:40:39.796Z,1009.44
2023-05-16T04:41:39.766Z,1009.48
2023-05-16T04:42:39.752Z,1009.46
2023-05-16T04:43:39.696Z,1009.45
2023-05-16T04:44:39.787Z,1009.51
2023-05-16T04:45:39.670Z,1009.49
2023-05-16T04:46:39.682Z,1009.53
2023-05-16T04:47:39.592Z,1009.50
2023-05-16T04:48:39.549Z,1009.52
2023-05-16T04:49:39.521Z,1009.55
2023-05-16T04:50:39.537Z,1009.58
2023-05-16T04:51:39.433Z,1009.52
2023-05-16T04:52:39.404Z,1009.51
2023-05-16T04:53:39.426Z,1009.62
2023-05-16T04:54:39.378Z,1009.56
2023-05-16T04:55:39.306Z,1009.58
2023-05-16T04:56:39.328Z,1009.57
2023-05-16T04:57:39.247Z,1009.59
2023-05-16T04:58:40.424Z,1009.67
2023-05-16T04:59:39.180Z,1009.70
2023-05-16T05:00:39.138Z,1009.74
2023-05-16T05:01:39.111Z,1009.77
2023-05-16T05:02:39.220Z,1009.77
2023-05-16T05:03:39.037Z,1009.77
2023-05-16T05:04:39.058Z,1009.74
2023-05-16T05:05:39.023Z,1009.77
2023-05-16T05:06:38.944Z,1009.74
2023-05-16T05:07:38.905Z,1009.74
2023-05-16T05:08:38.918Z,1009.79
2023-05-16T05:09:38.853Z,1009.80
2023-05-16T05:10:38.814Z,1009.83
2023-05-16T05:11:38.775Z,1009.81
2023-05-16T05:12:38.753Z,1009.83
2023-05-16T05:13:38.715Z,1009.83
2023-05-16T05:14:38.751Z,1009.90
2023-05-16T05:15:38.651Z,1009.93
2023-05-16T05:16:38.610Z,1009.93
2023-05-16T05:17:38.686Z,1009.91
2023-05-16T05:18:38.667Z,1009.91
2023-05-16T05:19:38.640Z,1009.87
2023-05-16T05:20:38.546Z,1009.95
2023-05-16T05:21:38.446Z,1009.92
2023-05-16T05:22:38.415Z,1009.92
2023-05-16T05:23:38.375Z,1009.95
2023-05-16T05:24:38.350Z,1009.96
2023-05-16T05:25:38.320Z,1009.97
2023-05-16T05:26:38.341Z,1009.97
2023-05-16T05:27:38.249Z,1010.03
2023-05-16T05:28:38.230Z,1010.01
2023-05-16T05:29:38.255Z,1009.99
2023-05-16T05:30:38.201Z,1010.02
2023-05-16T05:31:38.202Z,1010.02
2023-05-16T05:32:38.182Z,1010.07
2023-05-16T05:33:38.059Z,1010.06
2023-05-16T05:34:38.158Z,1010.19
2023-05-16T05:35:37.991Z,1010.08
2023-05-16T05:36:37.952Z,1010.12
2023-05-16T05:37:37.932Z,1010.14
2023-05-16T05:38:37.950Z,1010.12
2023-05-16T05:39:37.871Z,1010.20
2023-05-16T05:40:37.885Z,1010.16
2023-05-16T05:41:37.799Z,1010.24
2023-05-16T05:42:37.773Z,1010.25
2023-05-16T05:43:37.733Z,1010.27
2023-05-16T05:44:37.741Z,1010.29
2023-05-16T05:45:38.053Z,1010.32
2023-05-16T05:46:37.760Z,1010.34
2023-05-16T05:47:37.719Z,1010.35
2023-05-16T05:48:37.702Z,1010.38
2023-05-16T05:49:37.536Z,1010.41
2023-05-16T05:50:37.812Z,1010.42
2023-05-16T05:51:37.538Z,1010.39
2023-05-16T05:52:37.433Z,1010.32
2023-05-16T05:53:37.409Z,1010.45
2023-05-16T05:54:37.379Z,1010.42
2023-05-16T05:55:37.399Z,1010.45
2023-05-16T05:56:37.361Z,1010.44
2023-05-16T05:57:37.284Z,1010.43
2023-05-16T05:58:37.250Z,1010.43
2023-05-16T05:59:37.223Z,1010.48
2023-05-16T06:00:37.209Z,1010.45
2023-05-16T06:01:37.150Z,1010.50
2023-05-16T06:02:37.348Z,1010.46
2023-05-16T06:03:37.123Z,1010.47
2023-05-16T06:04:37.057Z,1010.50
2023-05-16T06:05:37.054Z,1010.47
2023-05-16T06:06:36.983Z,1010.52
2023-05-16T06:07:36.950Z,1010.48
2023-05-16T06:08:36.974Z,1010.49
2023-05-16T06:09:36.923Z,1010.51
2023-05-16T06:10:36.872Z,1010.54
2023-05-16T06:11:36.827Z,1010.54
2023-05-16T06:12:36.796Z,1010.57
2023-05-16T06:13:36.768Z,1010.54
2023-05-16T06:14:36.787Z,1010.56
2023-05-16T06:15:36.706Z,1010.56
2023-05-16T06:16:36.701Z,1010.53
2023-05-16T06:17:36.679Z,1010.58
2023-05-16T06:18:36.660Z,1010.58
2023-05-16T06:19:36.567Z,1010.54
2023-05-16T06:20:36.674Z,1010.57
2023-05-16T06:21:36.502Z,1010.45
2023-05-16T06:22:36.483Z,1010.58
2023-05-16T06:23:36.443Z,1010.65
2023-05-16T06:24:36.482Z,1010.59
2023-05-16T06:25:36.373Z,1010.62
2023-05-16T06:26:36.380Z,1010.66
2023-05-16T06:27:36.308Z,1010.59
2023-05-16T06:28:36.303Z,1010.65
2023-05-16T06:29:36.517Z,1010.67
2023-05-16T06:30:36.212Z,1010.65
2023-05-16T06:31:36.286Z,1010.66
2023-05-16T06:32:36.171Z,1010.64
2023-05-16T06:33:36.112Z,1010.69
2023-05-16T06:34:36.161Z,1010.69
2023-05-16T06:35:36.052Z,1010.76
2023-05-16T06:36:36.026Z,1010.73
2023-05-16T06:37:36.208Z,1010.79
2023-05-16T06:38:36.004Z,1010.82
2023-05-16T06:39:36.113Z,1010.86
2023-05-16T06:40:35.964Z,1010.90
2023-05-16T06:41:35.878Z,1010.84
2023-05-16T06:42:36.850Z,1010.92
2023-05-16T06:43:35.798Z,1010.90
2023-05-16T06:44:35.758Z,1010.95
2023-05-16T06:45:35.740Z,1010.95
2023-05-16T06:46:35.844Z,1010.99
2023-05-16T06:47:35.721Z,1010.95
2023-05-16T06:48:35.638Z,1010.98
2023-05-16T06:49:35.890Z,1011.03
2023-05-16T06:50:35.864Z,1011.00
2023-05-16T06:51:35.839Z,1011.02
2023-05-16T06:52:35.779Z,1011.05
2023-05-16T06:53:35.505Z,1011.03
2023-05-16T06:54:35.469Z,1011.01
2023-05-16T06:55:35.414Z,1011.03
2023-05-16T06:56:35.972Z,1011.05
2023-05-16T06:57:35.401Z,1011.08
2023-05-16T06:58:35.350Z,1011.09
2023-05-16T06:59:35.345Z,1011.05
2023-05-16T07:00:35.256Z,1011.07
2023-05-16T07:01:35.253Z,1011.03
2023-05-16T07:02:35.271Z,1011.04
2023-05-16T07:03:35.300Z,1011.03
2023-05-16T07:04:35.140Z,1011.03
2023-05-16T07:05:35.089Z,1010.97
2023-05-16T07:06:35.067Z,1011.05
2023-05-16T07:07:35.037Z,1011.12
2023-05-16T07:08:35.015Z,1011.07
2023-05-16T07:09:35.023Z,1011.10
2023-05-16T07:10:34.943Z,1011.10
2023-05-16T07:11:34.902Z,1011.18
2023-05-16T07:12:34.885Z,1011.12
2023-05-16T07:13:36.130Z,1011.16
2023-05-16T07:14:34.816Z,1011.20
2023-05-16T07:15:34.830Z,1011.26
2023-05-16T07:16:34.850Z,1011.23
2023-05-16T07:17:34.856Z,1011.25
2023-05-16T07:18:34.963Z,1011.28
2023-05-16T07:19:34.691Z,1011.27
2023-05-16T07:20:34.691Z,1011.28
2023-05-16T07:21:34.583Z,1011.32
2023-05-16T07:22:34.590Z,1011.36
2023-05-16T07:23:34.596Z,1011.32
2023-05-16T07:24:34.561Z,1011.33
2023-05-16T07:25:34.483Z,1011.30
2023-05-16T07:26:34.598Z,1011.31
2023-05-16T07:27:34.406Z,1011.35
2023-05-16T07:28:34.368Z,1011.41
2023-05-16T07:29:34.343Z,1011.39
2023-05-16T07:30:34.313Z,1011.37
2023-05-16T07:31:34.338Z,1011.42
2023-05-16T07:32:34.554Z,1011.42
2023-05-16T07:33:34.225Z,1011.36
2023-05-16T07:34:34.189Z,1011.39
2023-05-16T07:35:34.176Z,1011.38
2023-05-16T07:36:34.126Z,1011.40
2023-05-16T07:37:34.086Z,1011.38
2023-05-16T07:38:34.111Z,1011.39
2023-05-16T07:39:34.035Z,1011.31
2023-05-16T07:40:34.046Z,1011.32
2023-05-16T07:41:33.955Z,1011.34
2023-05-16T07:42:33.935Z,1011.31
2023-05-16T07:43:33.895Z,1011.27
2023-05-16T07:44:33.862Z,1011.31
2023-05-16T07:45:33.917Z,1011.25
2023-05-16T07:46:33.843Z,1011.24
2023-05-16T07:47:33.917Z,1011.25
2023-05-16T07:48:33.740Z,1011.23
2023-05-16T07:49:33.705Z,1011.29
2023-05-16T07:50:33.668Z,1011.25
2023-05-16T07:51:33.751Z,1011.36
2023-05-16T07:52:33.605Z,1011.28
2023-05-16T07:53:33.582Z,1011.25
2023-05-16T07:54:34.466Z,1011.31
2023-05-16T07:55:33.564Z,1011.34
2023-05-16T07:56:33.481Z,1011.30
2023-05-16T07:57:33.501Z,1011.38
2023-05-16T07:58:33.424Z,1011.40
2023-05-16T07:59:33.444Z,1011.36
2023-05-16T08:00:33.358Z,1011.44
2023-05-16T08:01:33.346Z,1011.40
2023-05-16T08:02:33.488Z,1011.44
2023-05-16T08:03:33.420Z,1011.49
2023-05-16T08:04:33.221Z,1011.48
2023-05-16T08:05:33.250Z,1011.45
2023-05-16T08:06:33.191Z,1011.47
2023-05-16T08:07:33.137Z,1011.59
2023-05-16T08:08:33.142Z,1011.57
2023-05-16T08:09:33.076Z,1011.44
2023-05-16T08:10:33.106Z,1011.52
2023-05-16T08:11:33.017Z,1011.56
2023-05-16T08:12:33.011Z,1011.50
2023-05-16T08:13:32.941Z,1011.53
2023-05-16T08:14:32.992Z,1011.55
2023-05-16T08:15:32.884Z,1011.59
2023-05-16T08:16:32.876Z,1011.68
2023-05-16T08:17:32.847Z,1011.65
2023-05-16T08:18:32.809Z,1011.72
2023-05-16T08:19:32.764Z,1011.74
2023-05-16T08:20:32.774Z,1011.66
2023-05-16T08:21:33.360Z,1011.70
2023-05-16T08:22:32.659Z,1011.68
2023-05-16T08:23:32.689Z,1011.74
2023-05-16T08:24:32.597Z,1011.71
2023-05-16T08:25:32.568Z,1011.70
2023-05-16T08:26:32.581Z,1011.69
2023-05-16T08:27:33.368Z,1011.71
2023-05-16T08:28:32.476Z,1011.76
2023-05-16T08:29:32.440Z,1011.78
2023-05-16T08:30:32.410Z,1011.77
2023-05-16T08:31:32.428Z,1011.79
2023-05-16T08:32:32.428Z,1011.82
2023-05-16T08:33:32.316Z,1011.80
2023-05-16T08:34:32.293Z,1011.79
2023-05-16T08:35:32.259Z,1011.81
2023-05-16T08:36:32.225Z,1011.80
2023-05-16T08:37:32.189Z,1011.77
2023-05-16T08:38:32.205Z,1011.82
2023-05-16T08:39:32.144Z,1011.79
2023-05-16T08:40:32.108Z,1011.77
2023-05-16T08:41:32.083Z,1011.76
2023-05-16T08:42:32.033Z,1011.82
2023-05-16T08:43:32.111Z,1011.80
2023-05-16T08:44:32.013Z,1011.83
2023-05-16T08:45:31.949Z,1011.80
2023-05-16T08:46:31.940Z,1011.82
2023-05-16T08:47:32.109Z,1011.83
2023-05-16T08:48:31.854Z,1011.82
2023-05-16T08:49:31.809Z,1011.90
2023-05-16T08:50:31.852Z,1011.85
2023-05-16T08:51:31.749Z,1011.87
2023-05-16T08:52:31.798Z,1011.86
2023-05-16T08:53:31.704Z,1011.85
2023-05-16T08:54:31.648Z,1011.81
2023-05-16T08:55:31.619Z,1011.79
2023-05-16T08:56:31.661Z,1011.79
2023-05-16T08:57:31.568Z,1011.78
2023-05-16T08:58:31.527Z,1011.76
2023-05-16T08:59:31.510Z,1011.74
2023-05-16T09:00:31.479Z,1011.74
2023-05-16T09:01:31.474Z,1011.74
2023-05-16T09:02:31.480Z,1011.72
2023-05-16T09:03:31.393Z,1011.67
2023-05-16T09:04:31.479Z,1011.65
2023-05-16T09:05:31.304Z,1011.74
2023-05-16T09:06:31.270Z,1011.76
2023-05-16T09:07:31.270Z,1011.66
2023-05-16T09:08:31.287Z,1011.69
2023-05-16T09:09:31.185Z,1011.67
2023-05-16T09:10:31.161Z,1011.73
2023-05-16T09:11:31.127Z,1011.75
2023-05-16T09:12:31.094Z,1011.80
2023-05-16T09:13:31.063Z,1011.82
2023-05-16T09:14:31.088Z,1011.83
2023-05-16T09:15:31.056Z,1011.86
2023-05-16T09:16:31.007Z,1011.90
2023-05-16T09:17:38.996Z,1011.93
2023-05-16T09:18:30.995Z,1011.98
2023-05-16T09:19:31.505Z,1012.02
2023-05-16T09:20:30.834Z,1011.99
2023-05-16T09:21:30.798Z,1011.97
2023-05-16T09:22:30.799Z,1012.05
2023-05-16T09:23:30.815Z,1011.90
2023-05-16T09:24:30.708Z,1011.92
2023-05-16T09:25:31.758Z,1011.94
2023-05-16T09:26:31.502Z,1011.86
2023-05-16T09:27:30.611Z,1011.91
2023-05-16T09:28:30.580Z,1011.91
2023-05-16T09:29:30.622Z,1011.90
2023-05-16T09:30:30.592Z,1011.94
2023-05-16T09:31:30.550Z,1011.94
2023-05-16T09:32:30.475Z,1011.99
2023-05-16T09:33:30.428Z,1011.95
2023-05-16T09:34:30.403Z,1012.00
2023-05-16T09:35:43.800Z,1011.98
2023-05-16T09:36:30.372Z,1012.01
2023-05-16T09:37:30.295Z,1012.13
2023-05-16T09:38:30.294Z,1012.04
2023-05-16T09:39:30.230Z,1012.08
2023-05-16T09:40:30.318Z,1012.05
2023-05-16T09:41:30.176Z,1012.09
2023-05-16T09:42:30.166Z,1012.12
2023-05-16T09:43:30.104Z,1012.16
2023-05-16T09:44:30.080Z,1012.15
2023-05-16T09:45:30.042Z,1012.13
2023-05-16T09:46:30.098Z,1012.14
2023-05-16T09:47:29.999Z,1012.19
2023-05-16T09:48:29.959Z,1012.22
2023-05-16T09:49:29.925Z,1012.19
2023-05-16T09:50:29.919Z,1012.20
2023-05-16T09:51:29.912Z,1012.20
2023-05-16T09:52:29.837Z,1012.20
2023-05-16T09:53:29.796Z,1012.20
2023-05-16T09:54:29.764Z,1012.16
2023-05-16T09:55:29.736Z,1012.24
2023-05-16T09:56:29.768Z,1012.27
2023-05-16T09:57:29.680Z,1012.30
2023-05-16T09:58:29.638Z,1012.26
2023-05-16T09:59:29.614Z,1012.27
2023-05-16T10:00:39.054Z,1012.30
2023-05-16T10:01:29.629Z,1012.33
2023-05-16T10:02:29.626Z,1012.32
2023-05-16T10:03:29.636Z,1012.30
2023-05-16T10:04:29.669Z,1012.36
2023-05-16T10:05:29.622Z,1012.35
2023-05-16T10:06:30.062Z,1012.44
2023-05-16T10:07:29.402Z,1012.39
2023-05-16T10:08:30.921Z,1012.34
2023-05-16T10:09:30.442Z,1012.36
2023-05-16T10:10:32.939Z,1012.35
2023-05-16T10:11:29.233Z,1012.33
2023-05-16T10:12:29.202Z,1012.33
2023-05-16T10:13:29.286Z,1012.34
2023-05-16T10:14:29.197Z,1012.29
2023-05-16T10:15:29.646Z,1012.32
2023-05-16T10:16:29.145Z,1012.30
2023-05-16T10:17:29.093Z,1012.31
2023-05-16T10:18:29.023Z,1012.33
2023-05-16T10:19:29.142Z,1012.34
2023-05-16T10:20:29.023Z,1012.32
2023-05-16T10:21:28.934Z,1012.27
2023-05-16T10:22:28.955Z,1012.31
2023-05-16T10:23:28.874Z,1012.25
2023-05-16T10:24:28.846Z,1012.24
2023-05-16T10:25:29.122Z,1012.25
2023-05-16T10:26:28.771Z,1012.24
2023-05-16T10:27:28.798Z,1012.23
2023-05-16T10:28:28.718Z,1012.25
2023-05-16T10:29:28.692Z,1012.22
2023-05-16T10:30:28.673Z,1012.23
2023-05-16T10:31:28.640Z,1012.19
2023-05-16T10:32:28.715Z,1012.16
2023-05-16T10:33:28.629Z,1012.20
2023-05-16T10:34:28.539Z,1012.20
2023-05-16T10:35:29.080Z,1012.19
2023-05-16T10:36:28.482Z,1012.22
2023-05-16T10:37:28.447Z,1012.34
2023-05-16T10:38:28.483Z,1012.29
2023-05-16T10:39:28.391Z,1012.29
2023-05-16T10:40:28.369Z,1012.32
2023-05-16T10:41:33.421Z,1012.34
2023-05-16T10:42:28.298Z,1012.35
2023-05-16T10:43:28.309Z,1012.42
2023-05-16T10:44:28.312Z,1012.42
2023-05-16T10:45:28.565Z,1012.52
2023-05-16T10:46:28.218Z,1012.49
2023-05-16T10:47:28.154Z,1012.45
2023-05-16T10:48:28.244Z,1012.50
2023-05-16T10:49:28.093Z,1012.50
2023-05-16T10:50:28.122Z,1012.52
2023-05-16T10:51:28.183Z,1012.60
2023-05-16T10:52:28.924Z,1012.57
2023-05-16T10:53:27.987Z,1012.58
2023-05-16T10:54:28.000Z,1012.60
2023-05-16T10:55:28.189Z,1012.59
2023-05-16T10:56:27.891Z,1012.54
2023-05-16T10:57:27.992Z,1012.55
2023-05-16T10:58:28.139Z,1012.54
2023-05-16T10:59:27.786Z,1012.54
2023-05-16T11:00:27.758Z,1012.54
2023-05-16T11:01:27.901Z,1012.54
2023-05-16T11:02:27.804Z,1012.55
2023-05-16T11:03:27.753Z,1012.61
2023-05-16T11:04:27.637Z,1012.56
2023-05-16T11:05:27.975Z,1012.54
2023-05-16T11:06:27.569Z,1012.71
2023-05-16T11:07:27.713Z,1012.50
2023-05-16T11:08:27.506Z,1012.53
2023-05-16T11:09:27.749Z,1012.48
2023-05-16T11:10:27.507Z,1012.50
2023-05-16T11:11:27.418Z,1012.55
2023-05-16T11:12:27.390Z,1012.61
2023-05-16T11:13:27.460Z,1012.60
2023-05-16T11:14:27.322Z,1012.59
2023-05-16T11:15:27.534Z,1012.60
2023-05-16T11:16:27.399Z,1012.58
2023-05-16T11:17:27.280Z,1012.60
2023-05-16T11:18:27.260Z,1012.56
2023-05-16T11:19:27.164Z,1012.59
2023-05-16T11:20:27.134Z,1012.58
2023-05-16T11:21:27.177Z,1012.61
2023-05-16T11:22:27.079Z,1012.61
2023-05-16T11:23:27.054Z,1012.62
2023-05-16T11:24:27.024Z,1012.64
2023-05-16T11:25:27.129Z,1012.62
2023-05-16T11:26:26.951Z,1012.66
2023-05-16T11:27:26.974Z,1012.67
2023-05-16T11:28:26.957Z,1012.66
2023-05-16T11:29:26.868Z,1012.67
2023-05-16T11:30:26.849Z,1012.64
2023-05-16T11:31:26.831Z,1012.64
2023-05-16T11:32:26.857Z,1012.72
2023-05-16T11:33:27.442Z,1012.68
2023-05-16T11:34:26.709Z,1012.69
2023-05-16T11:35:26.923Z,1012.72
2023-05-16T11:36:26.702Z,1012.71
2023-05-16T11:37:26.718Z,1012.69
2023-05-16T11:38:33.677Z,1012.68
2023-05-16T11:39:26.655Z,1012.68
2023-05-16T11:40:26.542Z,1012.70
2023-05-16T11:41:26.582Z,1012.68
2023-05-16T11:42:26.478Z,1012.67
2023-05-16T11:43:26.456Z,1012.63
2023-05-16T11:44:26.425Z,1012.69
2023-05-16T11:45:26.527Z,1012.70
2023-05-16T11:46:26.411Z,1012.66
2023-05-16T11:47:26.485Z,1012.69
2023-05-16T11:48:35.661Z,1012.63
2023-05-16T11:49:26.292Z,1012.62
2023-05-16T11:50:26.249Z,1012.73
2023-05-16T11:51:26.228Z,1012.69
2023-05-16T11:52:27.054Z,1012.62
2023-05-16T11:53:26.618Z,1012.66
2023-05-16T11:54:27.187Z,1012.69
2023-05-16T11:55:40.120Z,1012.68
2023-05-16T11:56:26.200Z,1012.71
2023-05-16T11:57:27.949Z,1012.71
2023-05-16T11:58:27.062Z,1012.56
2023-05-16T11:59:26.136Z,1012.60
2023-05-16T12:00:28.469Z,1012.65
2023-05-16T12:01:26.076Z,1012.65
2023-05-16T12:02:26.604Z,1012.66
2023-05-16T12:03:26.280Z,1012.65
2023-05-16T12:04:26.137Z,1012.61
2023-05-16T12:05:25.917Z,1012.63